Time;durP1;ratioP1;P1;durP2;ratioP2;P2;SDS_P1;SDS_P2;PMS_P1;PMS_P2;Temp;Humidity;BMP_temperature;BMP_pressure;BME280_temperature;BME280_humidity;BME280_pressure;Samples;Min_cycle;Max_cycle;Signal;HPM_P1;HPM_P2
2021/12/21 00:00:38;;;;;;;;;;;;;;;1.63;100.00;100295.22;5114241;28;19915;-74
2021/12/21 00:03:29;;;;;;;;;;;;;;;1.47;100.00;100296.69;5114061;28;19916;-74
2021/12/21 00:09:03;;;;;;;;;;;;;;;1.10;100.00;100304.50;5132754;28;20081;-75
2021/12/21 00:11:35;;;;;;;;;;;;;;;1.02;100.00;100311.06;5114246;28;20021;-75
2021/12/21 00:17:19;;;;;;;;;;;;;;;1.16;100.00;100309.63;5132691;28;20061;-74
2021/12/21 00:20:22;;;;;;;;;;;;;;;1.10;100.00;100303.66;5114238;28;19915;-75
2021/12/21 00:25:45;;;;;;;;;;;;;;;0.56;100.00;100316.13;5132756;28;19911;-75
2021/12/21 00:31:13;;;;;;;;;;;;;;;0.40;100.00;100334.16;5135399;27;19917;-75
2021/12/21 00:34:11;;;;;;;;;;;;;;;0.53;100.00;100328.59;5136686;27;20001;-75
2021/12/21 00:36:52;;;;;;;;;;;;;;;0.24;100.00;100333.03;5118074;27;19968;-75
2021/12/21 00:39:38;;;;;;;;;;;;;;;0.58;100.00;100344.50;5136268;27;19912;-75
2021/12/21 00:42:24;;;;;;;;;;;;;;;0.57;100.00;100333.66;5117790;27;20384;-75
2021/12/21 00:45:16;;;;;;;;;;;;;;;0.52;100.00;100336.88;5117690;27;20342;-75
2021/12/21 00:50:45;;;;;;;;;;;;;;;0.73;100.00;100327.28;5136026;27;20340;-75
2021/12/21 00:53:23;;;;;;;;;;;;;;;0.61;100.00;100334.56;5117776;27;19990;-75
2021/12/21 00:55:53;;;;;;;;;;;;;;;0.88;100.00;100325.00;5117353;27;19911;-75
2021/12/21 00:58:31;;;;;;;;;;;;;;;1.11;100.00;100331.22;5096926;28;19968;-76
2021/12/21 01:01:13;;;;;;;;;;;;;;;1.02;100.00;100322.72;5096872;28;19969;-75
2021/12/21 01:03:51;;;;;;;;;;;;;;;2.00;100.00;100326.63;5097001;28;19912;-75
2021/12/21 01:12:24;;;;;;;;;;;;;;;0.27;100.00;100333.09;5115178;28;19919;-75
2021/12/21 01:18:02;;;;;;;;;;;;;;;0.09;100.00;100345.25;5114899;28;20011;-75
2021/12/21 01:20:36;;;;;;;;;;;;;;;0.32;100.00;100336.53;5114745;28;19918;-75
2021/12/21 01:37:58;;;;;;;;;;;;;;;0.48;100.00;100355.13;5114907;28;19918;-75
2021/12/21 01:49:51;;;;;;;;;;;;;;;0.12;100.00;100345.28;5114378;28;19919;-75
2021/12/21 01:52:33;;;;;;;;;;;;;;;0.35;100.00;100344.09;5095838;28;19918;-75
2021/12/21 01:58:03;;;;;;;;;;;;;;;0.57;100.00;100338.66;5131347;27;20052;-75
2021/12/21 02:03:31;;;;;;;;;;;;;;;0.29;100.00;100340.63;5134765;27;20010;-75
2021/12/21 02:06:16;;;;;;;;;;;;;;;0.51;100.00;100347.72;5116164;27;20375;-75
2021/12/21 02:09:00;;;;;;;;;;;;;;;0.51;100.00;100333.56;5134591;27;20376;-75
2021/12/21 02:11:29;;;;;;;;;;;;;;;0.39;100.00;100342.47;5134888;27;20256;-74
2021/12/21 02:14:02;;;;;;;;;;;;;;;0.23;100.00;100343.84;5134382;27;19926;-74
2021/12/21 02:16:44;;;;;;;;;;;;;;;0.34;100.00;100344.03;5134102;27;20375;-73
2021/12/21 02:19:34;;;;;;;;;;;;;;;0.41;100.00;100336.72;5115766;27;20340;-73
2021/12/21 02:22:10;;;;;;;;;;;;;;;0.25;100.00;100349.72;5115530;27;19918;-74
2021/12/21 02:24:49;;;;;;;;;;;;;;;0.29;100.00;100343.97;5134291;27;19979;-73
2021/12/21 02:27:29;;;;;;;;;;;;;;;0.16;100.00;100351.22;5115795;27;20284;-74
2021/12/21 02:36:07;;;;;;;;;;;;;;;1.04;100.00;100341.97;5133720;27;19967;-74
2021/12/21 02:44:39;;;;;;;;;;;;;;;1.46;100.00;100340.09;5133673;27;19976;-74
2021/12/21 02:47:06;;;;;;;;;;;;;;;1.37;100.00;100341.59;5115675;27;19932;-74
2021/12/21 02:49:33;;;;;;;;;;;;;;;1.38;100.00;100354.19;5133528;27;19911;-74
2021/12/21 02:55:02;;;;;;;;;;;;;;;1.33;100.00;100352.41;5133459;27;19919;-74
2021/12/21 02:57:28;;;;;;;;;;;;;;;1.22;100.00;100347.25;5115026;27;20445;-73
2021/12/21 03:00:01;;;;;;;;;;;;;;;1.61;100.00;100349.47;5115091;27;19911;-74
2021/12/21 03:02:35;;;;;;;;;;;;;;;1.84;100.00;100357.31;5133426;27;19918;-74
2021/12/21 03:05:03;;;;;;;;;;;;;;;1.52;100.00;100364.38;5133645;27;19915;-75
2021/12/21 03:10:23;;;;;;;;;;;;;;;1.41;100.00;100361.72;5133835;27;19954;-74
2021/12/21 03:16:00;;;;;;;;;;;;;;;1.55;100.00;100367.78;5133216;27;20294;-74
2021/12/21 03:18:26;;;;;;;;;;;;;;;1.63;100.00;100376.25;5115086;27;19911;-75
2021/12/21 03:21:23;;;;;;;;;;;;;;;1.87;100.00;100378.25;5114805;27;19911;-74
2021/12/21 03:26:51;;;;;;;;;;;;;;;1.74;100.00;100381.41;5133412;27;20397;-74
2021/12/21 03:32:19;;;;;;;;;;;;;;;1.76;100.00;100384.78;5132921;27;20434;-75
2021/12/21 03:37:48;;;;;;;;;;;;;;;2.00;100.00;100380.06;5132982;27;20401;-75
2021/12/21 03:43:22;;;;;;;;;;;;;;;1.97;100.00;100386.72;5132921;28;20409;-75
2021/12/21 03:46:03;;;;;;;;;;;;;;;1.93;100.00;100385.00;5114472;28;19915;-75
2021/12/21 03:48:42;;;;;;;;;;;;;;;2.06;100.00;100381.84;5114671;28;20379;-75
2021/12/21 03:51:14;;;;;;;;;;;;;;;2.09;100.00;100386.88;5132700;28;19911;-74
2021/12/21 03:54:17;;;;;;;;;;;;;;;2.12;100.00;100381.91;5114461;28;19911;-75
2021/12/21 03:56:47;;;;;;;;;;;;;;;1.99;100.00;100383.41;5132688;28;19919;-74
2021/12/21 03:59:21;;;;;;;;;;;;;;;2.13;100.00;100383.59;5094187;28;19915;-74
2021/12/21 04:01:53;;;;;;;;;;;;;;;2.05;100.00;100386.00;5094273;28;19912;-74
2021/12/21 04:04:22;;;;;;;;;;;;;;;1.96;100.00;100385.88;5112207;28;19912;-74
2021/12/21 04:06:59;;;;;;;;;;;;;;;1.98;100.00;100389.22;5098143;28;20002;-74
2021/12/21 04:09:24;;;;;;;;;;;;;;;1.95;100.00;100398.38;5116304;28;19961;-74
2021/12/21 04:14:53;;;;;;;;;;;;;;;1.73;100.00;100372.19;5116221;28;19919;-74
2021/12/21 04:17:34;;;;;;;;;;;;;;;1.84;100.00;100398.25;5097810;28;19912;-75
2021/12/21 04:20:30;;;;;;;;;;;;;;;1.77;100.00;100399.81;5098032;28;19963;-74
2021/12/21 04:23:02;;;;;;;;;;;;;;;1.97;100.00;100397.59;5097757;28;19912;-74
2021/12/21 04:28:30;;;;;;;;;;;;;;;1.69;100.00;100405.53;5115982;28;20359;-75
2021/12/21 04:33:59;;;;;;;;;;;;;;;0.93;100.00;100420.19;5115573;28;19934;-74
2021/12/21 04:36:45;;;;;;;;;;;;;;;0.62;100.00;100427.13;5115581;28;20367;-74
2021/12/21 04:39:56;;;;;;;;;;;;;;;1.03;100.00;100415.34;5097385;28;19912;-74
2021/12/21 04:42:25;;;;;;;;;;;;;;;0.83;100.00;100420.00;5097493;28;19926;-75
2021/12/21 04:44:51;;;;;;;;;;;;;;;0.85;100.00;100430.06;5096614;28;19998;-71
2021/12/21 04:47:20;;;;;;;;;;;;;;;0.51;100.00;100435.22;5114763;28;19919;-71
2021/12/21 04:49:46;;;;;;;;;;;;;;;0.61;100.00;100430.44;5096864;28;19960;-70
2021/12/21 04:52:11;;;;;;;;;;;;;;;0.55;100.00;100436.97;5114847;28;19955;-72
2021/12/21 04:54:41;;;;;;;;;;;;;;;0.72;100.00;100440.63;5115324;28;19964;-71
2021/12/21 04:57:07;;;;;;;;;;;;;;;0.60;100.00;100445.41;5116596;27;19937;-78
2021/12/21 04:59:52;;;;;;;;;;;;;;;0.58;100.00;100442.88;5097994;28;19912;-78
2021/12/21 05:05:21;;;;;;;;;;;;;;;0.40;100.00;100450.00;5113706;28;20304;-71
2021/12/21 05:07:51;;;;;;;;;;;;;;;0.45;100.00;100455.09;5096023;28;19969;-72
2021/12/21 05:10:29;;;;;;;;;;;;;;;0.25;100.00;100457.19;5114347;28;20002;-71
2021/12/21 05:12:57;;;;;;;;;;;;;;;0.35;100.00;100459.09;5094747;28;20010;-70
2021/12/21 05:15:32;;;;;;;;;;;;;;;0.95;100.00;100461.94;5113856;28;19912;-71
2021/12/21 05:17:58;;;;;;;;;;;;;;;0.61;100.00;100450.44;5113787;28;19920;-72
2021/12/21 05:20:26;;;;;;;;;;;;;;;0.37;100.00;100456.59;5113336;28;20466;-71
2021/12/21 05:22:53;;;;;;;;;;;;;;;0.49;100.00;100464.34;5096010;28;19912;-73
2021/12/21 05:25:19;;;;;;;;;;;;;;;0.48;100.00;100456.00;5114034;28;20011;-72
2021/12/21 05:27:47;;;;;;;;;;;;;;;0.79;100.00;100458.28;5112883;28;19915;-72
2021/12/21 05:30:37;;;;;;;;;;;;;;;0.87;100.00;100453.44;5114282;28;19912;-75
2021/12/21 05:33:07;;;;;;;;;;;;;;;0.76;100.00;100449.88;5114161;28;19983;-73
2021/12/21 05:35:51;;;;;;;;;;;;;;;0.55;100.00;100454.47;5095296;28;19915;-73
2021/12/21 05:38:32;;;;;;;;;;;;;;;0.63;100.00;100463.84;5114064;28;20423;-74
2021/12/21 05:41:45;;;;;;;;;;;;;;;0.76;100.00;100470.75;5095743;28;19916;-75
2021/12/21 05:44:19;;;;;;;;;;;;;;;0.90;100.00;100478.50;5114568;28;19915;-74
2021/12/21 05:46:56;;;;;;;;;;;;;;;1.36;100.00;100476.00;5096341;28;20015;-74
2021/12/21 05:49:34;;;;;;;;;;;;;;;0.79;100.00;100487.47;5096556;28;19966;-77
2021/12/21 05:52:22;;;;;;;;;;;;;;;0.93;100.00;100492.75;5114205;28;20014;-76
2021/12/21 05:55:03;;;;;;;;;;;;;;;1.15;100.00;100489.81;5096018;28;19911;-75
2021/12/21 05:57:28;;;;;;;;;;;;;;;2.05;100.00;100490.44;5095623;28;19916;-76
2021/12/21 06:03:05;;;;;;;;;;;;;;;2.35;100.00;100500.91;5114174;28;20333;-75
2021/12/21 06:05:44;;;;;;;;;;;;;;;2.47;100.00;100504.41;5095831;28;19918;-75
2021/12/21 06:08:12;;;;;;;;;;;;;;;2.54;96.79;100502.81;5114126;28;19960;-75
2021/12/21 06:10:46;;;;;;;;;;;;;;;2.54;98.93;100505.31;5095731;28;20380;-75
2021/12/21 06:28:03;;;;;;;;;;;;;;;3.11;100.00;100542.84;5113006;28;20049;-76
2021/12/21 06:33:33;;;;;;;;;;;;;;;5.56;77.74;100548.56;5113487;28;19961;-76
2021/12/21 06:36:12;;;;;;;;;;;;;;;4.30;84.03;100554.78;5095554;28;19916;-75
2021/12/21 06:38:39;;;;;;;;;;;;;;;5.25;80.74;100557.72;5113491;28;19920;-76
2021/12/21 06:41:30;;;;;;;;;;;;;;;2.95;97.70;100566.91;5095483;28;19919;-76
2021/12/21 06:53:09;;;;;;;;;;;;;;;2.93;100.00;100565.22;5113236;28;20026;-76
2021/12/21 06:55:35;;;;;;;;;;;;;;;5.57;87.14;100559.47;5094827;28;19999;-76
2021/12/21 06:58:00;;;;;;;;;;;;;;;2.22;100.00;100571.78;5112785;28;19959;-75
2021/12/21 07:00:26;;;;;;;;;;;;;;;2.25;100.00;100576.81;5113077;28;19944;-76
2021/12/21 07:02:51;;;;;;;;;;;;;;;3.09;100.00;100577.13;5113027;28;19912;-76
2021/12/21 07:05:16;;;;;;;;;;;;;;;3.17;100.00;100583.91;5113001;28;19919;-76
2021/12/21 07:07:42;;;;;;;;;;;;;;;3.34;100.00;100582.44;5094894;28;19915;-76
2021/12/21 07:10:11;;;;;;;;;;;;;;;3.15;100.00;100584.75;5094819;28;19919;-76
2021/12/21 07:20:24;;;;;;;;;;;;;;;3.71;88.68;100580.28;5112681;28;20438;-76
2021/12/21 07:22:49;;;;;;;;;;;;;;;3.51;89.08;100587.63;5112835;28;19969;-76
2021/12/21 07:25:14;;;;;;;;;;;;;;;3.59;87.13;100578.50;5112606;28;19945;-76
2021/12/21 07:27:40;;;;;;;;;;;;;;;3.36;91.15;100574.91;5112792;28;19911;-76
2021/12/21 07:30:05;;;;;;;;;;;;;;;3.45;88.25;100580.88;5094550;28;19922;-76
2021/12/21 07:32:31;;;;;;;;;;;;;;;3.39;88.42;100588.34;5112433;28;19912;-77
2021/12/21 07:34:57;;;;;;;;;;;;;;;3.25;91.77;100576.44;5094573;28;20328;-77
2021/12/21 07:37:22;;;;;;;;;;;;;;;3.29;93.06;100585.72;5094454;28;20414;-76
2021/12/21 07:39:47;;;;;;;;;;;;;;;3.27;92.98;100585.69;5094118;28;19915;-75
2021/12/21 07:42:13;;;;;;;;;;;;;;;3.15;97.27;100589.75;5094447;28;19919;-76
2021/12/21 07:44:39;;;;;;;;;;;;;;;3.21;95.46;100587.31;5112375;28;19922;-76
2021/12/21 07:47:04;;;;;;;;;;;;;;;3.15;97.31;100587.25;5112558;28;19919;-76
2021/12/21 07:49:30;;;;;;;;;;;;;;;3.24;94.70;100585.69;5112127;28;19912;-76
2021/12/21 07:51:56;;;;;;;;;;;;;;;3.22;97.73;100582.31;5094104;28;19938;-76
2021/12/21 07:54:21;;;;;;;;;;;;;;;3.21;97.97;100590.66;5112466;28;19911;-76
2021/12/21 07:56:46;;;;;;;;;;;;;;;3.31;92.33;100597.47;5112192;28;19984;-75
2021/12/21 07:59:12;;;;;;;;;;;;;;;3.29;94.06;100594.09;5094134;28;19915;-77
2021/12/21 08:01:37;;;;;;;;;;;;;;;3.25;96.39;100607.44;5094001;28;19915;-75
2021/12/21 08:04:03;;;;;;;;;;;;;;;3.32;95.46;100599.19;5111809;28;19911;-74
2021/12/21 08:06:31;;;;;;;;;;;;;;;3.30;98.27;100607.50;5112309;28;19912;-76
2021/12/21 08:08:57;;;;;;;;;;;;;;;3.46;96.75;100604.34;5112192;28;20363;-75
2021/12/21 08:14:00;;;;;;;;;;;;;;;3.51;100.00;100613.59;5112510;28;19974;-76
2021/12/21 08:16:26;;;;;;;;;;;;;;;3.57;98.21;100622.03;5112016;28;19915;-76
2021/12/21 08:18:52;;;;;;;;;;;;;;;3.49;100.00;100615.25;5093854;28;20010;-76
2021/12/21 08:21:18;;;;;;;;;;;;;;;3.44;99.45;100614.38;5112301;28;20011;-77
2021/12/21 08:23:44;;;;;;;;;;;;;;;3.50;99.24;100619.47;5111902;28;19912;-76
2021/12/21 08:26:10;;;;;;;;;;;;;;;3.49;98.60;100625.31;5112231;28;19918;-76
2021/12/21 08:28:35;;;;;;;;;;;;;;;3.46;98.83;100626.97;5111870;28;19918;-75
2021/12/21 08:31:00;;;;;;;;;;;;;;;3.43;99.27;100612.69;5111885;28;19955;-76
2021/12/21 08:33:27;;;;;;;;;;;;;;;3.37;94.66;100622.66;5111859;28;19918;-75
2021/12/21 08:35:52;;;;;;;;;;;;;;;3.50;93.70;100616.97;5112208;28;19912;-76
2021/12/21 08:38:19;;;;;;;;;;;;;;;3.69;90.61;100615.47;5112026;28;19992;-76
2021/12/21 08:40:49;;;;;;;;;;;;;;;3.84;93.84;100615.63;5093990;28;19915;-76
2021/12/21 08:43:23;;;;;;;;;;;;;;;4.02;89.11;100620.78;5093695;28;19919;-76
2021/12/21 08:45:49;;;;;;;;;;;;;;;4.05;84.53;100609.94;5111710;28;19912;-75
2021/12/21 08:48:15;;;;;;;;;;;;;;;4.09;83.55;100621.69;5111921;28;19968;-76
2021/12/21 08:50:41;;;;;;;;;;;;;;;4.08;84.44;100635.13;5112309;28;19919;-76
2021/12/21 08:53:06;;;;;;;;;;;;;;;4.09;83.28;100634.28;5097417;28;19934;-76
2021/12/21 08:55:31;;;;;;;;;;;;;;;3.93;83.13;100629.94;5115413;28;19998;-77
2021/12/21 08:57:58;;;;;;;;;;;;;;;3.88;82.97;100644.16;5097503;28;19919;-77
2021/12/21 09:00:24;;;;;;;;;;;;;;;3.78;82.03;100634.84;5115371;28;19916;-78
2021/12/21 09:02:50;;;;;;;;;;;;;;;3.77;80.33;100630.63;5115334;28;19973;-76
2021/12/21 09:05:18;;;;;;;;;;;;;;;3.74;80.07;100623.06;5097304;28;19916;-76
2021/12/21 09:07:44;;;;;;;;;;;;;;;3.74;80.63;100646.53;5097303;28;19912;-77
2021/12/21 09:10:11;;;;;;;;;;;;;;;3.92;81.32;100638.31;5115311;28;19912;-77
2021/12/21 09:12:37;;;;;;;;;;;;;;;4.02;80.82;100630.03;5115342;28;19926;-75
2021/12/21 09:15:03;;;;;;;;;;;;;;;4.02;76.78;100645.13;5097087;28;20010;-76
2021/12/21 09:17:28;;;;;;;;;;;;;;;4.08;77.57;100637.63;5114992;28;19919;-77
2021/12/21 09:19:54;;;;;;;;;;;;;;;4.01;76.99;100638.41;5097013;28;19912;-79
2021/12/21 09:22:19;;;;;;;;;;;;;;;3.95;78.26;100643.38;5114780;28;20490;-76
2021/12/21 09:24:44;;;;;;;;;;;;;;;4.02;78.42;100637.59;5096955;28;19911;-76
2021/12/21 09:27:11;;;;;;;;;;;;;;;3.94;77.85;100637.50;5114814;28;19918;-77
2021/12/21 09:29:38;;;;;;;;;;;;;;;3.99;78.19;100638.38;5115002;28;19912;-79
2021/12/21 09:32:04;;;;;;;;;;;;;;;4.10;76.67;100639.31;5096823;28;20280;-76
2021/12/21 09:34:29;;;;;;;;;;;;;;;4.08;78.61;100638.47;5096634;28;19969;-78
2021/12/21 09:36:54;;;;;;;;;;;;;;;4.15;79.29;100641.88;5096299;28;20026;-77
2021/12/21 09:39:20;;;;;;;;;;;;;;;4.05;78.54;100637.59;5096459;28;19960;-77
2021/12/21 09:41:45;;;;;;;;;;;;;;;4.13;75.78;100636.84;5096653;28;20018;-75
2021/12/21 09:44:11;;;;;;;;;;;;;;;4.19;77.04;100636.91;5096634;28;19935;-76
2021/12/21 09:46:36;;;;;;;;;;;;;;;4.13;75.51;100636.84;5096418;28;19916;-77
2021/12/21 09:49:02;;;;;;;;;;;;;;;4.22;76.79;100636.91;5096471;28;19915;-80
2021/12/21 09:51:27;;;;;;;;;;;;;;;4.37;73.29;100628.66;5114604;28;19955;-76
2021/12/21 09:53:55;;;;;;;;;;;;;;;4.47;72.11;100642.13;5114436;28;19919;-77
2021/12/21 09:56:20;;;;;;;;;;;;;;;4.29;71.06;100638.66;5096306;28;19968;-79
2021/12/21 09:58:46;;;;;;;;;;;;;;;4.15;69.50;100647.75;5114272;28;19920;-77
2021/12/21 10:01:11;;;;;;;;;;;;;;;4.06;71.62;100649.34;5096027;28;19912;-78
2021/12/21 10:03:36;;;;;;;;;;;;;;;4.01;69.14;100644.28;5114309;28;20513;-74
2021/12/21 10:06:04;;;;;;;;;;;;;;;3.96;70.53;100645.06;5114221;28;20436;-77
2021/12/21 10:08:30;;;;;;;;;;;;;;;3.94;71.75;100646.72;5114214;28;19912;-77
2021/12/21 10:10:56;;;;;;;;;;;;;;;3.96;72.43;100658.47;5114469;28;20365;-78
2021/12/21 10:13:22;;;;;;;;;;;;;;;3.95;71.93;100653.44;5096257;28;19916;-76
2021/12/21 10:15:49;;;;;;;;;;;;;;;3.97;69.52;100646.75;5095926;28;19968;-76
2021/12/21 10:18:21;;;;;;;;;;;;;;;3.94;69.47;100644.22;5095957;28;20394;-77
2021/12/21 10:20:47;;;;;;;;;;;;;;;4.04;68.68;100640.97;5113826;28;20380;-77
2021/12/21 10:23:20;;;;;;;;;;;;;;;4.06;69.43;100641.81;5095942;28;19956;-77
2021/12/21 10:25:48;;;;;;;;;;;;;;;3.97;69.95;100639.19;5095770;28;19916;-80
2021/12/21 10:28:25;;;;;;;;;;;;;;;3.98;69.09;100639.19;5095630;28;19911;-77
2021/12/21 10:30:53;;;;;;;;;;;;;;;4.24;70.49;100646.97;5095531;28;19919;-79
2021/12/21 10:33:20;;;;;;;;;;;;;;;4.07;69.54;100639.31;5095694;28;19919;-78
2021/12/21 10:35:46;;;;;;;;;;;;;;;4.01;68.14;100638.41;5113571;28;19915;-76
2021/12/21 10:38:11;;;;;;;;;;;;;;;4.26;68.74;100636.09;5095611;28;19935;-77
2021/12/21 10:40:38;;;;;;;;;;;;;;;4.28;67.54;100643.66;5095428;28;19919;-78
2021/12/21 10:43:05;;;;;;;;;;;;;;;4.29;65.16;100638.66;5095589;28;20440;-78
2021/12/21 10:45:38;;;;;;;;;;;;;;;4.49;66.05;100626.22;5113643;28;19934;-80
2021/12/21 10:48:05;;;;;;;;;;;;;;;4.50;65.38;100630.41;5095404;28;19912;-80
2021/12/21 10:50:33;;;;;;;;;;;;;;;4.62;67.18;100633.00;5095012;28;19912;-77
2021/12/21 10:53:00;;;;;;;;;;;;;;;4.50;66.22;100630.41;5095475;28;19968;-77
2021/12/21 10:55:33;;;;;;;;;;;;;;;4.52;66.76;100630.41;5095029;28;19961;-77
2021/12/21 10:58:06;;;;;;;;;;;;;;;4.48;67.09;100627.03;5112956;28;19959;-78
2021/12/21 11:00:32;;;;;;;;;;;;;;;4.70;66.25;100631.38;5113277;28;19992;-79
2021/12/21 11:02:57;;;;;;;;;;;;;;;4.91;65.14;100634.00;5094955;28;19912;-77
2021/12/21 11:05:23;;;;;;;;;;;;;;;4.84;63.41;100632.31;5095064;28;20379;-79
2021/12/21 11:08:00;;;;;;;;;;;;;;;4.74;62.36;100645.69;5113114;28;19973;-77
2021/12/21 11:10:30;;;;;;;;;;;;;;;4.89;63.82;100643.22;5095186;28;19919;-76
2021/12/21 11:13:01;;;;;;;;;;;;;;;4.84;62.45;100649.94;5094847;28;20345;-78
2021/12/21 11:15:29;;;;;;;;;;;;;;;4.98;62.58;100653.38;5094762;28;19923;-80
2021/12/21 11:17:55;;;;;;;;;;;;;;;5.15;61.43;100648.44;5112918;28;19961;-78
2021/12/21 11:20:21;;;;;;;;;;;;;;;5.17;62.26;100649.25;5094742;28;19912;-77
2021/12/21 11:22:47;;;;;;;;;;;;;;;5.25;61.44;100650.97;5113156;28;19969;-78
2021/12/21 11:25:13;;;;;;;;;;;;;;;5.53;63.34;100646.88;5112663;28;20391;-76
2021/12/21 11:27:39;;;;;;;;;;;;;;;5.24;61.58;100648.47;5113028;28;19918;-78
2021/12/21 11:30:06;;;;;;;;;;;;;;;5.62;62.26;100651.97;5094685;28;20423;-78
2021/12/21 11:32:34;;;;;;;;;;;;;;;5.32;62.27;100649.34;5094669;28;20414;-77
2021/12/21 11:37:47;;;;;;;;;;;;;;;5.60;60.49;100647.75;5071231;28;20112;-76
2021/12/21 11:40:14;;;;;;;;;;;;;;;5.04;62.26;100639.97;5112945;28;19916;-77
2021/12/21 11:42:51;;;;;;;;;;;;;;;5.15;63.42;100649.25;5094906;28;19972;-77
2021/12/21 11:45:37;;;;;;;;;;;;;;;4.93;63.32;100652.50;5094582;28;19911;-77
2021/12/21 11:48:15;;;;;;;;;;;;;;;4.70;65.93;100656.56;5094264;28;19911;-77
2021/12/21 11:50:43;;;;;;;;;;;;;;;4.61;62.58;100656.50;5094655;28;19954;-78
2021/12/21 11:53:10;;;;;;;;;;;;;;;4.86;62.07;100653.31;5112836;28;19912;-77
2021/12/21 11:55:37;;;;;;;;;;;;;;;4.72;61.44;100652.38;5094327;28;19911;-79
2021/12/21 11:58:21;;;;;;;;;;;;;;;4.62;63.29;100645.59;5094178;28;19920;-77
2021/12/21 12:00:48;;;;;;;;;;;;;;;4.99;63.32;100652.53;5112691;28;19923;-77
2021/12/21 12:03:18;;;;;;;;;;;;;;;4.93;64.59;100657.53;5112495;28;19998;-77
2021/12/21 12:05:55;;;;;;;;;;;;;;;4.98;64.19;100657.56;5112413;28;19919;-76
2021/12/21 12:08:21;;;;;;;;;;;;;;;5.06;64.23;100655.94;5112080;28;19912;-75
2021/12/21 12:10:47;;;;;;;;;;;;;;;5.40;65.57;100667.84;5112704;28;19915;-77
2021/12/21 12:13:25;;;;;;;;;;;;;;;5.77;64.69;100668.81;5094478;28;19922;-77
2021/12/21 12:15:52;;;;;;;;;;;;;;;5.92;63.17;100659.63;5112349;28;20006;-75
2021/12/21 12:18:22;;;;;;;;;;;;;;;5.86;60.65;100662.13;5112264;28;19919;-78
2021/12/21 12:20:47;;;;;;;;;;;;;;;5.15;62.41;100664.38;5112137;28;20328;-77
2021/12/21 12:23:13;;;;;;;;;;;;;;;4.83;61.92;100670.09;5112332;28;19918;-78
2021/12/21 12:25:47;;;;;;;;;;;;;;;4.71;64.42;100682.59;5094840;28;19946;-77
2021/12/21 12:28:19;;;;;;;;;;;;;;;4.68;63.45;100669.97;5116021;28;19912;-76
2021/12/21 12:30:47;;;;;;;;;;;;;;;4.58;64.84;100678.28;5097858;28;20002;-76
2021/12/21 12:33:12;;;;;;;;;;;;;;;4.53;66.03;100693.38;5097834;28;19912;-77
2021/12/21 12:35:41;;;;;;;;;;;;;;;4.53;66.16;100695.88;5116003;28;19912;-77
2021/12/21 12:38:13;;;;;;;;;;;;;;;4.44;66.88;100692.47;5097887;28;19912;-78
2021/12/21 12:41:04;;;;;;;;;;;;;;;4.32;67.23;100693.19;5116268;28;19919;-79
2021/12/21 12:43:30;;;;;;;;;;;;;;;4.24;67.94;100692.25;5110890;28;19928;-76
2021/12/21 12:46:02;;;;;;;;;;;;;;;4.18;71.26;100697.28;5116023;28;20533;-76
2021/12/21 12:48:47;;;;;;;;;;;;;;;4.06;71.69;100689.59;5097732;28;20014;-76
2021/12/21 12:51:40;;;;;;;;;;;;;;;4.06;71.47;100684.56;5097471;28;19911;-76
2021/12/21 12:54:21;;;;;;;;;;;;;;;3.98;72.17;100686.16;5097529;28;19947;-76
2021/12/21 12:56:47;;;;;;;;;;;;;;;4.07;73.58;100693.78;5097340;28;19912;-76
2021/12/21 12:59:12;;;;;;;;;;;;;;;4.05;72.79;100697.97;5097391;28;19916;-77
2021/12/21 13:01:40;;;;;;;;;;;;;;;4.01;74.67;100704.63;5097307;28;20410;-77
2021/12/21 13:04:09;;;;;;;;;;;;;;;4.00;75.18;100697.09;5097520;28;20383;-76
2021/12/21 13:06:35;;;;;;;;;;;;;;;4.01;75.04;100707.16;5115657;28;19915;-77
2021/12/21 13:09:01;;;;;;;;;;;;;;;4.30;73.85;100705.75;5097223;28;20056;-79
2021/12/21 13:11:28;;;;;;;;;;;;;;;5.96;68.21;100693.28;5097503;28;20006;-77
2021/12/21 13:13:55;;;;;;;;;;;;;;;5.60;66.73;100693.16;5115442;28;20372;-77
2021/12/21 13:16:22;;;;;;;;;;;;;;;4.88;68.83;100701.16;5097426;28;19935;-78
2021/12/21 13:19:07;;;;;;;;;;;;;;;4.39;68.60;100708.38;5097191;28;19923;-77
2021/12/21 13:21:34;;;;;;;;;;;;;;;4.26;70.79;100713.25;5114772;28;20324;-76
2021/12/21 13:24:02;;;;;;;;;;;;;;;4.28;67.98;100716.63;5115192;28;19911;-78
2021/12/21 13:26:38;;;;;;;;;;;;;;;4.32;68.32;100716.69;5096853;28;20018;-77
2021/12/21 13:29:05;;;;;;;;;;;;;;;4.27;68.61;100717.47;5115257;28;19951;-75
2021/12/21 13:31:30;;;;;;;;;;;;;;;4.33;68.24;100722.56;5114977;28;19912;-78
2021/12/21 13:33:57;;;;;;;;;;;;;;;4.38;67.79;100726.78;5096664;28;19915;-77
2021/12/21 13:36:30;;;;;;;;;;;;;;;5.15;62.83;100729.88;5096599;28;19934;-77
2021/12/21 13:38:56;;;;;;;;;;;;;;;4.37;66.17;100731.81;5096637;28;19915;-76
2021/12/21 13:41:22;;;;;;;;;;;;;;;4.21;67.66;100740.06;5096715;28;20007;-76
2021/12/21 13:43:55;;;;;;;;;;;;;;;4.26;66.13;100748.47;5114909;28;20000;-77
2021/12/21 13:46:20;;;;;;;;;;;;;;;4.26;65.99;100744.28;5114756;28;19912;-77
2021/12/21 13:48:50;;;;;;;;;;;;;;;4.79;63.64;100757.38;5096917;28;19998;-79
2021/12/21 13:51:16;;;;;;;;;;;;;;;5.56;58.60;100749.44;5096596;28;19965;-77
2021/12/21 13:53:43;;;;;;;;;;;;;;;4.26;61.65;100766.09;5114560;28;19935;-76
2021/12/21 13:56:13;;;;;;;;;;;;;;;4.05;62.75;100765.88;5096331;28;20383;-76
2021/12/21 13:58:39;;;;;;;;;;;;;;;4.08;62.87;100770.97;5114169;28;19927;-76
2021/12/21 14:01:04;;;;;;;;;;;;;;;4.40;63.16;100775.47;5114270;28;19912;-78
2021/12/21 14:03:37;;;;;;;;;;;;;;;4.62;60.66;100770.63;5114386;28;20015;-79
2021/12/21 14:06:10;;;;;;;;;;;;;;;4.12;64.17;100780.22;5096094;28;19912;-76
2021/12/21 14:08:36;;;;;;;;;;;;;;;3.99;63.38;100776.72;5096111;28;19923;-78
2021/12/21 14:11:02;;;;;;;;;;;;;;;3.87;63.40;100774.06;5096009;28;19916;-77
2021/12/21 14:13:40;;;;;;;;;;;;;;;3.78;64.13;100776.47;5114177;28;19923;-78
2021/12/21 14:16:10;;;;;;;;;;;;;;;3.91;62.56;100788.38;5114195;28;19911;-79
2021/12/21 14:18:42;;;;;;;;;;;;;;;3.81;64.79;100780.69;5114277;28;19919;-77
2021/12/21 14:21:10;;;;;;;;;;;;;;;3.81;64.70;100785.72;5095755;28;19915;-76
2021/12/21 14:23:36;;;;;;;;;;;;;;;3.70;64.55;100782.22;5113832;28;19915;-77
2021/12/21 14:26:09;;;;;;;;;;;;;;;3.67;66.45;100782.16;5096049;28;20072;-76
2021/12/21 14:28:48;;;;;;;;;;;;;;;3.60;66.31;100793.00;5113622;28;19912;-76
2021/12/21 14:31:15;;;;;;;;;;;;;;;3.57;65.70;100790.41;5113597;28;20311;-77
2021/12/21 14:33:48;;;;;;;;;;;;;;;3.25;72.37;100802.53;5095867;28;19919;-77
2021/12/21 14:36:15;;;;;;;;;;;;;;;2.97;87.96;100795.44;5095563;28;19919;-79
2021/12/21 14:38:58;;;;;;;;;;;;;;;2.80;100.00;100807.69;5113647;28;20401;-79
2021/12/21 14:41:32;;;;;;;;;;;;;;;2.65;100.00;100802.44;5113952;28;19915;-76
2021/12/21 14:44:01;;;;;;;;;;;;;;;2.61;100.00;100805.72;5095971;28;19922;-77
2021/12/21 14:46:27;;;;;;;;;;;;;;;2.69;100.00;100806.69;5113378;28;19938;-77
2021/12/21 14:49:00;;;;;;;;;;;;;;;2.69;100.00;100819.25;5112679;28;20431;-76
2021/12/21 14:51:25;;;;;;;;;;;;;;;2.60;100.00;100824.06;5113500;28;19911;-77
2021/12/21 14:54:06;;;;;;;;;;;;;;;2.58;100.00;100830.72;5113161;28;19918;-77
2021/12/21 14:56:34;;;;;;;;;;;;;;;2.71;100.00;100830.16;5094968;28;19994;-76
2021/12/21 14:59:01;;;;;;;;;;;;;;;2.80;100.00;100842.84;5094949;28;20026;-77
2021/12/21 15:01:36;;;;;;;;;;;;;;;2.75;100.00;100846.09;5095062;28;20006;-78
2021/12/21 15:04:13;;;;;;;;;;;;;;;2.65;100.00;100857.66;5094875;28;19911;-78
2021/12/21 15:06:38;;;;;;;;;;;;;;;2.53;100.00;100867.47;5113283;28;19911;-76
2021/12/21 15:09:03;;;;;;;;;;;;;;;2.31;100.00;100858.69;5113000;28;19912;-77
2021/12/21 15:11:30;;;;;;;;;;;;;;;2.21;100.00;100869.34;5113379;28;20355;-78
2021/12/21 15:13:56;;;;;;;;;;;;;;;2.28;100.00;100873.66;5095118;28;19920;-76
2021/12/21 15:16:21;;;;;;;;;;;;;;;2.10;100.00;100874.97;5112665;28;19922;-77
2021/12/21 15:18:46;;;;;;;;;;;;;;;2.11;100.00;100875.00;5094970;28;19934;-76
2021/12/21 15:21:11;;;;;;;;;;;;;;;2.06;100.00;100870.72;5094616;28;19993;-75
2021/12/21 15:23:37;;;;;;;;;;;;;;;1.87;100.00;100884.50;5112535;28;19981;-76